Time;durP1;ratioP1;P1;durP2;ratioP2;P2;SDS_P1;SDS_P2;PMS_P1;PMS_P2;Temp;Humidity;BMP_temperature;BMP_pressure;BME280_temperature;BME280_humidity;BME280_pressure;Samples;Min_cycle;Max_cycle;Signal;HPM_P1;HPM_P2
2022/03/18 00:02:57;;;;;;;16.63;6.10;;;;;;;;;;6172831;28;20324;-73
2022/03/18 00:06:19;;;;;;;15.97;6.10;;;;;;;;;;6167780;28;20259;-72
2022/03/18 00:09:41;;;;;;;15.00;5.40;;;;;;;;;;6168888;28;20695;-73
2022/03/18 00:13:02;;;;;;;17.07;5.87;;;;;;;;;;6167594;28;20321;-74
2022/03/18 00:16:22;;;;;;;13.43;5.30;;;;;;;;;;6168753;28;20575;-73
2022/03/18 00:19:44;;;;;;;14.70;5.13;;;;;;;;;;6164671;28;20261;-73
2022/03/18 00:23:05;;;;;;;20.23;7.57;;;;;;;;;;6168172;28;20609;-73
2022/03/18 00:26:26;;;;;;;20.87;5.73;;;;;;;;;;6167352;28;20738;-73
2022/03/18 00:29:47;;;;;;;21.30;6.37;;;;;;;;;;6152659;28;20341;-72
2022/03/18 00:33:08;;;;;;;17.93;6.23;;;;;;;;;;6173436;28;20254;-73
2022/03/18 00:36:29;;;;;;;10.67;4.60;;;;;;;;;;6170182;28;20237;-72
2022/03/18 00:39:51;;;;;;;15.60;5.07;;;;;;;;;;6169983;28;20230;-74
2022/03/18 00:43:12;;;;;;;18.20;5.60;;;;;;;;;;6173762;28;20258;-72
2022/03/18 00:46:32;;;;;;;15.90;6.17;;;;;;;;;;6174102;28;20234;-71
2022/03/18 00:53:32;;;;;;;15.47;6.27;;;;;;;;;;6168313;28;20547;-72
2022/03/18 00:56:54;;;;;;;17.50;6.33;;;;;;;;;;6176500;28;20230;-73
2022/03/18 01:00:16;;;;;;;15.20;6.53;;;;;;;;;;6174508;28;20288;-73
2022/03/18 01:03:36;;;;;;;19.30;7.17;;;;;;;;;;6168766;28;20241;-73
2022/03/18 01:06:57;;;;;;;17.07;7.77;;;;;;;;;;6170916;28;20229;-72
2022/03/18 01:10:18;;;;;;;19.43;6.77;;;;;;;;;;6169970;28;20694;-72
2022/03/18 01:13:41;;;;;;;17.33;6.70;;;;;;;;;;6171905;28;20229;-73
2022/03/18 01:17:01;;;;;;;13.00;6.13;;;;;;;;;;6178654;28;20237;-72
2022/03/18 01:20:22;;;;;;;13.77;6.60;;;;;;;;;;6178667;28;20234;-73
2022/03/18 01:23:43;;;;;;;15.43;6.70;;;;;;;;;;6175815;28;20226;-74
2022/03/18 01:27:05;;;;;;;22.03;10.17;;;;;;;;;;6177258;28;20261;-72
2022/03/18 01:30:27;;;;;;;22.27;8.37;;;;;;;;;;6171384;28;20225;-74
2022/03/18 01:33:47;;;;;;;13.37;6.17;;;;;;;;;;6178042;28;20234;-74
2022/03/18 01:37:08;;;;;;;14.17;5.73;;;;;;;;;;6175291;28;20233;-72
2022/03/18 01:40:30;;;;;;;16.40;7.00;;;;;;;;;;6175776;28;20230;-72
2022/03/18 01:43:50;;;;;;;13.50;8.37;;;;;;;;;;6176795;28;20230;-72
2022/03/18 01:47:12;;;;;;;19.00;7.43;;;;;;;;;;6152060;28;20556;-72
2022/03/18 01:50:33;;;;;;;18.20;7.53;;;;;;;;;;6179442;28;20265;-71
2022/03/18 01:57:29;;;;;;;17.33;8.37;;;;;;;;;;6184885;28;20528;-72
2022/03/18 02:00:50;;;;;;;15.37;9.43;;;;;;;;;;6179156;28;20325;-73
2022/03/18 02:04:12;;;;;;;23.53;11.87;;;;;;;;;;6178878;28;20249;-72
2022/03/18 02:07:34;;;;;;;17.43;10.63;;;;;;;;;;6169665;28;20223;-72
2022/03/18 02:10:54;;;;;;;19.97;10.53;;;;;;;;;;6145043;28;20226;-72
2022/03/18 02:14:15;;;;;;;18.93;10.33;;;;;;;;;;6172414;28;20357;-73
2022/03/18 02:17:37;;;;;;;12.27;7.07;;;;;;;;;;6167969;28;20293;-73
2022/03/18 02:20:59;;;;;;;21.00;8.50;;;;;;;;;;6174593;28;20321;-72
2022/03/18 02:24:22;;;;;;;16.03;9.23;;;;;;;;;;6173465;28;20222;-71
2022/03/18 02:27:54;;;;;;;15.43;8.17;;;;;;;;;;6173356;28;20555;-71
2022/03/18 02:31:15;;;;;;;13.90;8.37;;;;;;;;;;6170424;28;20217;-72
2022/03/18 02:34:37;;;;;;;22.60;8.43;;;;;;;;;;6167338;28;20623;-73
2022/03/18 02:37:58;;;;;;;18.37;7.17;;;;;;;;;;6174830;28;20258;-73
2022/03/18 02:41:21;;;;;;;15.63;7.30;;;;;;;;;;6180729;28;20225;-72
2022/03/18 02:44:41;;;;;;;13.87;7.40;;;;;;;;;;6172025;28;20222;-72
2022/03/18 02:48:02;;;;;;;11.97;7.07;;;;;;;;;;6168280;28;20241;-73
2022/03/18 02:51:23;;;;;;;12.50;6.00;;;;;;;;;;6171480;28;20229;-73
2022/03/18 02:54:44;;;;;;;11.87;7.90;;;;;;;;;;6170085;28;20233;-73
2022/03/18 02:58:06;;;;;;;19.27;8.20;;;;;;;;;;6174183;28;20664;-72
2022/03/18 03:01:27;;;;;;;15.53;7.73;;;;;;;;;;6166070;28;20241;-72
2022/03/18 03:08:23;;;;;;;16.80;7.73;;;;;;;;;;6154376;28;20234;-72
2022/03/18 03:11:44;;;;;;;15.40;7.07;;;;;;;;;;6170704;28;20678;-73
2022/03/18 03:15:07;;;;;;;15.87;7.00;;;;;;;;;;6168425;28;21193;-73
2022/03/18 03:18:29;;;;;;;17.93;7.00;;;;;;;;;;6172504;28;20496;-73
2022/03/18 03:21:49;;;;;;;15.37;7.30;;;;;;;;;;6171788;28;20509;-73
2022/03/18 03:25:10;;;;;;;13.37;6.07;;;;;;;;;;6163137;28;20238;-73
2022/03/18 03:28:31;;;;;;;21.53;6.80;;;;;;;;;;6166702;28;20234;-73
2022/03/18 03:31:53;;;;;;;14.23;6.63;;;;;;;;;;6170405;28;20230;-74
2022/03/18 03:35:15;;;;;;;14.43;7.10;;;;;;;;;;6163206;28;20687;-72
2022/03/18 03:38:36;;;;;;;12.30;7.53;;;;;;;;;;6171168;28;20251;-72
2022/03/18 03:41:56;;;;;;;14.00;6.47;;;;;;;;;;6165429;28;20233;-72
2022/03/18 03:45:17;;;;;;;16.13;7.27;;;;;;;;;;6164773;28;20427;-73
2022/03/18 03:48:39;;;;;;;15.77;8.60;;;;;;;;;;6168866;28;20627;-72
2022/03/18 03:52:00;;;;;;;13.20;7.57;;;;;;;;;;6175155;28;20230;-73
2022/03/18 03:55:21;;;;;;;16.67;7.57;;;;;;;;;;6176950;28;20229;-73
2022/03/18 03:58:42;;;;;;;17.30;7.37;;;;;;;;;;6170771;28;20308;-73
2022/03/18 04:02:03;;;;;;;11.37;6.13;;;;;;;;;;6155108;28;20238;-73
2022/03/18 04:05:26;;;;;;;14.80;7.57;;;;;;;;;;6167654;28;20738;-73
2022/03/18 04:08:47;;;;;;;12.33;7.00;;;;;;;;;;6172000;28;20226;-73
2022/03/18 04:12:08;;;;;;;20.10;8.90;;;;;;;;;;6164135;28;20227;-73
2022/03/18 04:15:29;;;;;;;17.27;8.10;;;;;;;;;;6168161;28;20229;-72
2022/03/18 04:18:50;;;;;;;10.43;7.63;;;;;;;;;;6169031;28;20229;-72
2022/03/18 04:22:12;;;;;;;33.10;29.60;;;;;;;;;;6161666;28;20270;-72
2022/03/18 04:25:33;;;;;;;11.77;9.90;;;;;;;;;;6169425;28;20234;-72
2022/03/18 04:28:54;;;;;;;10.27;7.03;;;;;;;;;;6164269;28;20548;-72
2022/03/18 04:32:15;;;;;;;12.23;6.77;;;;;;;;;;6169886;28;20586;-72
2022/03/18 04:35:36;;;;;;;14.23;7.30;;;;;;;;;;6164202;28;20245;-73
2022/03/18 04:38:59;;;;;;;14.83;8.67;;;;;;;;;;6170587;28;20218;-72
2022/03/18 04:42:20;;;;;;;13.43;7.27;;;;;;;;;;6170786;28;20812;-73
2022/03/18 04:45:40;;;;;;;15.73;6.73;;;;;;;;;;6166955;28;20233;-73
2022/03/18 04:49:01;;;;;;;13.43;7.13;;;;;;;;;;6170921;28;20238;-73
2022/03/18 04:52:22;;;;;;;14.87;6.90;;;;;;;;;;6173001;28;20233;-73
2022/03/18 04:55:45;;;;;;;18.27;14.00;;;;;;;;;;6170392;28;20510;-72
2022/03/18 04:59:06;;;;;;;11.93;8.03;;;;;;;;;;6169261;28;20227;-72
2022/03/18 05:02:28;;;;;;;9.80;6.87;;;;;;;;;;6162700;28;20564;-72
2022/03/18 05:05:49;;;;;;;16.40;11.17;;;;;;;;;;6167073;28;20651;-73
2022/03/18 05:09:10;;;;;;;34.70;29.57;;;;;;;;;;6166417;28;20238;-73
2022/03/18 05:12:32;;;;;;;15.47;13.70;;;;;;;;;;6165861;28;20222;-73
2022/03/18 05:15:53;;;;;;;17.20;11.30;;;;;;;;;;6169001;28;20262;-73
2022/03/18 05:19:14;;;;;;;9.30;6.73;;;;;;;;;;6169633;28;20535;-73
2022/03/18 05:22:34;;;;;;;16.73;7.47;;;;;;;;;;6176470;28;20234;-72
2022/03/18 05:25:56;;;;;;;9.80;5.97;;;;;;;;;;6172471;28;20234;-73
2022/03/18 05:29:18;;;;;;;13.33;7.27;;;;;;;;;;6177595;28;20246;-73
2022/03/18 05:32:40;;;;;;;12.30;6.37;;;;;;;;;;6170814;28;20516;-73
2022/03/18 05:36:02;;;;;;;11.73;6.00;;;;;;;;;;6178542;28;20507;-73
2022/03/18 05:39:23;;;;;;;10.47;6.90;;;;;;;;;;6177801;28;20230;-73
2022/03/18 05:42:44;;;;;;;8.17;5.63;;;;;;;;;;6172564;28;20226;-72
2022/03/18 05:46:07;;;;;;;12.27;6.57;;;;;;;;;;6168909;28;20511;-72
2022/03/18 05:49:28;;;;;;;9.10;6.63;;;;;;;;;;6173879;28;20238;-72
2022/03/18 05:52:48;;;;;;;11.00;6.37;;;;;;;;;;6172967;28;20230;-73
2022/03/18 05:59:48;;;;;;;9.57;6.70;;;;;;;;;;6175984;28;20230;-73
2022/03/18 06:03:10;;;;;;;14.67;7.93;;;;;;;;;;6174614;28;20233;-72
2022/03/18 06:06:30;;;;;;;11.57;8.43;;;;;;;;;;6179771;28;20627;-72
2022/03/18 06:13:28;;;;;;;10.17;6.60;;;;;;;;;;6149326;28;20233;-72
2022/03/18 06:16:50;;;;;;;14.70;9.20;;;;;;;;;;6170462;28;20317;-72
2022/03/18 06:20:12;;;;;;;11.50;7.90;;;;;;;;;;6174870;28;20238;-73
2022/03/18 06:23:33;;;;;;;11.37;7.50;;;;;;;;;;6177492;28;20513;-73
2022/03/18 06:26:54;;;;;;;16.87;7.87;;;;;;;;;;6185934;28;20230;-73
2022/03/18 06:30:15;;;;;;;14.63;8.10;;;;;;;;;;6161995;28;20230;-73
2022/03/18 06:33:41;;;;;;;14.33;7.60;;;;;;;;;;6170656;28;20230;-73
2022/03/18 06:37:04;;;;;;;17.60;8.30;;;;;;;;;;6175480;28;20233;-70
2022/03/18 06:40:24;;;;;;;15.43;7.53;;;;;;;;;;6188226;28;20221;-73
2022/03/18 06:43:45;;;;;;;11.60;7.03;;;;;;;;;;6181258;28;20230;-73
2022/03/18 06:47:06;;;;;;;16.50;6.73;;;;;;;;;;6181036;28;20643;-73
2022/03/18 06:50:27;;;;;;;12.87;6.93;;;;;;;;;;6182042;28;20833;-73
2022/03/18 06:53:49;;;;;;;12.00;7.60;;;;;;;;;;6162948;28;20242;-73
2022/03/18 06:57:10;;;;;;;12.97;8.00;;;;;;;;;;6178240;28;20617;-75
2022/03/18 07:00:31;;;;;;;11.73;7.33;;;;;;;;;;6169620;28;20226;-73
2022/03/18 07:03:52;;;;;;;16.47;7.33;;;;;;;;;;6176465;28;20230;-73
2022/03/18 07:07:13;;;;;;;15.70;8.57;;;;;;;;;;6177185;28;20325;-72
2022/03/18 07:10:35;;;;;;;12.73;8.50;;;;;;;;;;6175298;28;20229;-71
2022/03/18 07:13:56;;;;;;;13.93;8.50;;;;;;;;;;6185014;28;20334;-71
2022/03/18 07:20:56;;;;;;;12.13;8.20;;;;;;;;;;6169757;28;20242;-71
2022/03/18 07:24:17;;;;;;;10.57;7.50;;;;;;;;;;6167863;28;20331;-73
2022/03/18 07:27:39;;;;;;;12.10;9.10;;;;;;;;;;6170726;28;20250;-73
2022/03/18 07:31:00;;;;;;;18.43;8.17;;;;;;;;;;6170317;28;20234;-73
2022/03/18 07:34:21;;;;;;;14.20;8.77;;;;;;;;;;6170228;28;20234;-72
2022/03/18 07:37:42;;;;;;;14.60;9.37;;;;;;;;;;6155427;28;20237;-70
2022/03/18 07:41:03;;;;;;;19.23;8.97;;;;;;;;;;6164698;28;20666;-74
2022/03/18 07:44:26;;;;;;;16.90;9.60;;;;;;;;;;6167834;28;20230;-71
2022/03/18 07:47:49;;;;;;;13.63;8.23;;;;;;;;;;6173514;28;20607;-70
2022/03/18 07:51:11;;;;;;;10.67;8.83;;;;;;;;;;6165704;28;20343;-74
2022/03/18 07:54:32;;;;;;;23.30;13.97;;;;;;;;;;6167999;28;20237;-74
2022/03/18 07:57:53;;;;;;;16.10;8.77;;;;;;;;;;6171959;28;20222;-75
2022/03/18 08:01:16;;;;;;;14.47;8.40;;;;;;;;;;6164140;28;20226;-74
2022/03/18 08:04:37;;;;;;;19.40;10.77;;;;;;;;;;6164534;28;20245;-73
2022/03/18 08:07:58;;;;;;;17.37;9.33;;;;;;;;;;6169147;28;20225;-77
2022/03/18 08:11:19;;;;;;;14.97;8.93;;;;;;;;;;6142617;28;20606;-77
2022/03/18 08:14:39;;;;;;;14.20;8.77;;;;;;;;;;6167663;28;20262;-74
2022/03/18 08:18:02;;;;;;;18.77;10.27;;;;;;;;;;6166266;28;20233;-74
2022/03/18 08:21:24;;;;;;;14.37;9.27;;;;;;;;;;6165997;28;20553;-74
2022/03/18 08:24:45;;;;;;;15.63;10.00;;;;;;;;;;6163562;28;20238;-73
2022/03/18 08:28:07;;;;;;;21.73;10.93;;;;;;;;;;6171290;28;20225;-71
2022/03/18 08:31:29;;;;;;;14.53;8.70;;;;;;;;;;6168175;28;20226;-71
2022/03/18 08:34:52;;;;;;;16.07;9.60;;;;;;;;;;6168380;28;20226;-71
2022/03/18 08:38:12;;;;;;;14.17;9.33;;;;;;;;;;6167692;28;20230;-71
2022/03/18 08:41:33;;;;;;;17.77;9.93;;;;;;;;;;6173519;28;21168;-76
2022/03/18 08:44:54;;;;;;;17.50;8.90;;;;;;;;;;6176772;28;20339;-76
2022/03/18 08:48:15;;;;;;;14.97;8.30;;;;;;;;;;6177435;28;20392;-74
2022/03/18 08:51:38;;;;;;;13.87;8.90;;;;;;;;;;6172709;28;21827;-75
2022/03/18 08:54:59;;;;;;;14.10;7.20;;;;;;;;;;6167395;28;20226;-74
2022/03/18 08:58:22;;;;;;;16.27;8.77;;;;;;;;;;6167507;28;20221;-72
2022/03/18 09:01:43;;;;;;;9.53;7.83;;;;;;;;;;6159692;28;20557;-69
2022/03/18 09:05:05;;;;;;;14.30;8.00;;;;;;;;;;6166752;28;20703;-74
2022/03/18 09:08:28;;;;;;;14.30;8.80;;;;;;;;;;6165040;28;20270;-72
2022/03/18 09:11:48;;;;;;;14.57;8.07;;;;;;;;;;6167896;28;20237;-73
2022/03/18 09:15:10;;;;;;;21.60;8.20;;;;;;;;;;6162068;28;20317;-73
2022/03/18 09:18:31;;;;;;;13.47;8.97;;;;;;;;;;6167026;28;20241;-73
2022/03/18 09:21:52;;;;;;;14.50;7.23;;;;;;;;;;6171462;28;20627;-77
2022/03/18 09:25:15;;;;;;;16.23;8.03;;;;;;;;;;6150746;28;20231;-73
2022/03/18 09:28:36;;;;;;;14.47;7.63;;;;;;;;;;6165510;28;20248;-75
2022/03/18 09:31:58;;;;;;;10.73;8.10;;;;;;;;;;6171449;28;20278;-75
2022/03/18 09:35:18;;;;;;;10.47;7.00;;;;;;;;;;6172812;28;20242;-75
2022/03/18 09:38:39;;;;;;;12.80;8.13;;;;;;;;;;6175400;28;20230;-73
2022/03/18 09:42:02;;;;;;;10.70;7.47;;;;;;;;;;6173244;28;20242;-73
2022/03/18 09:45:25;;;;;;;15.03;6.77;;;;;;;;;;6170556;28;20230;-75
2022/03/18 09:48:46;;;;;;;18.10;8.40;;;;;;;;;;6175629;28;20229;-75
2022/03/18 09:52:07;;;;;;;11.13;7.53;;;;;;;;;;6171532;28;24690;-77
2022/03/18 09:55:30;;;;;;;13.17;8.73;;;;;;;;;;6167765;28;20261;-73
2022/03/18 09:58:52;;;;;;;7.87;6.50;;;;;;;;;;6173188;28;21084;-74
2022/03/18 10:02:27;;;;;;;14.80;10.30;;;;;;;;;;6166777;28;20245;-73
2022/03/18 10:05:49;;;;;;;16.40;7.80;;;;;;;;;;6170880;28;20229;-74
2022/03/18 10:09:11;;;;;;;15.13;8.90;;;;;;;;;;6164490;28;20639;-75
2022/03/18 10:12:34;;;;;;;15.33;7.63;;;;;;;;;;6167629;28;20246;-77
2022/03/18 10:15:58;;;;;;;10.67;7.00;;;;;;;;;;6172356;28;20821;-73
2022/03/18 10:19:21;;;;;;;15.23;7.80;;;;;;;;;;6166733;28;20245;-76
2022/03/18 10:22:41;;;;;;;11.70;7.97;;;;;;;;;;6168980;28;20700;-78
2022/03/18 10:26:02;;;;;;;16.03;8.73;;;;;;;;;;6176170;28;20399;-77
2022/03/18 10:29:24;;;;;;;13.33;7.50;;;;;;;;;;6166380;28;20234;-74
2022/03/18 10:32:49;;;;;;;13.77;8.33;;;;;;;;;;6168071;28;20229;-77
2022/03/18 10:40:02;;;;;;;13.47;6.10;;;;;;;;;;6179493;28;20231;-75
2022/03/18 10:43:23;;;;;;;16.70;7.87;;;;;;;;;;6170219;28;20222;-77
2022/03/18 10:46:44;;;;;;;17.73;13.50;;;;;;;;;;6175074;28;20486;-73
2022/03/18 10:50:19;;;;;;;10.40;7.90;;;;;;;;;;6175093;28;21012;-76
2022/03/18 10:53:41;;;;;;;9.32;5.90;;;;;;;;;;6172564;28;20245;-76
2022/03/18 10:57:02;;;;;;;10.27;6.10;;;;;;;;;;6177673;28;20603;-75
2022/03/18 11:00:25;;;;;;;12.90;6.80;;;;;;;;;;6178198;28;20215;-72
2022/03/18 11:03:47;;;;;;;9.38;5.32;;;;;;;;;;6182145;28;20619;-77
2022/03/18 11:14:27;;;;;;;12.40;6.22;;;;;;;;;;6171620;28;20366;-75
2022/03/18 11:17:48;;;;;;;14.43;6.38;;;;;;;;;;6158353;28;20234;-78
2022/03/18 11:21:10;;;;;;;10.82;5.95;;;;;;;;;;6173874;28;20606;-73
2022/03/18 11:24:33;;;;;;;9.27;5.65;;;;;;;;;;6167906;28;20840;-78
2022/03/18 11:27:56;;;;;;;14.95;6.18;;;;;;;;;;6156855;28;20230;-80
2022/03/18 11:31:18;;;;;;;7.38;5.40;;;;;;;;;;6160984;28;20237;-76
2022/03/18 11:34:45;;;;;;;10.57;5.38;;;;;;;;;;6176877;28;20230;-79
2022/03/18 11:38:07;;;;;;;9.80;6.22;;;;;;;;;;6169753;28;20245;-75
2022/03/18 11:41:47;;;;;;;11.35;5.95;;;;;;;;;;6168833;28;20245;-75
2022/03/18 11:45:09;;;;;;;9.95;6.20;;;;;;;;;;6169161;28;20218;-78
2022/03/18 11:48:37;;;;;;;7.82;5.55;;;;;;;;;;6162242;28;20229;-78
2022/03/18 11:51:59;;;;;;;13.23;5.30;;;;;;;;;;6157047;28;20233;-78
2022/03/18 11:55:21;;;;;;;9.90;5.50;;;;;;;;;;6163435;28;20746;-78
2022/03/18 11:58:43;;;;;;;6.85;4.18;;;;;;;;;;6165187;28;20321;-79
2022/03/18 12:02:05;;;;;;;6.68;5.40;;;;;;;;;;6166131;28;20222;-79
2022/03/18 12:05:32;;;;;;;11.80;5.90;;;;;;;;;;6168073;28;20249;-82
2022/03/18 12:09:01;;;;;;;7.15;4.28;;;;;;;;;;6176466;28;20225;-80
2022/03/18 12:12:24;;;;;;;9.68;5.03;;;;;;;;;;6168654;28;20693;-78
2022/03/18 12:15:47;;;;;;;10.75;6.75;;;;;;;;;;6166473;28;20257;-76
2022/03/18 12:19:11;;;;;;;11.00;9.45;;;;;;;;;;6166046;28;20317;-75
2022/03/18 12:22:37;;;;;;;10.60;7.43;;;;;;;;;;6171635;28;20233;-76
2022/03/18 12:26:05;;;;;;;9.68;5.35;;;;;;;;;;6162233;28;20227;-75
2022/03/18 12:29:27;;;;;;;9.02;4.68;;;;;;;;;;6163757;28;20607;-76
2022/03/18 12:32:51;;;;;;;9.73;5.63;;;;;;;;;;6155755;28;20537;-77
2022/03/18 12:36:13;;;;;;;15.25;12.07;;;;;;;;;;6145911;28;20234;-77
2022/03/18 12:39:34;;;;;;;8.57;5.20;;;;;;;;;;6160596;28;20241;-74
2022/03/18 12:42:56;;;;;;;9.40;4.68;;;;;;;;;;6161126;28;20234;-77
2022/03/18 12:46:17;;;;;;;11.40;6.97;;;;;;;;;;6160466;28;20234;-74
2022/03/18 12:49:40;;;;;;;7.25;4.32;;;;;;;;;;6155326;28;20226;-78
2022/03/18 12:53:01;;;;;;;7.45;3.85;;;;;;;;;;6154752;28;20222;-76
2022/03/18 12:56:23;;;;;;;12.75;8.00;;;;;;;;;;6124197;28;20267;-78
2022/03/18 12:59:56;;;;;;;6.60;5.40;;;;;;;;;;6165376;28;20237;-77
2022/03/18 13:03:19;;;;;;;9.50;6.07;;;;;;;;;;6157965;28;20638;-78
2022/03/18 13:06:42;;;;;;;5.90;3.72;;;;;;;;;;6166185;28;20246;-74
2022/03/18 13:10:04;;;;;;;8.25;3.25;;;;;;;;;;6157525;28;20238;-73
2022/03/18 13:13:27;;;;;;;6.82;2.83;;;;;;;;;;6166540;28;20315;-72
2022/03/18 13:16:48;;;;;;;8.35;6.85;;;;;;;;;;6168532;28;20237;-74
2022/03/18 13:20:40;;;;;;;11.68;9.40;;;;;;;;;;6152664;28;20237;-74
2022/03/18 13:24:12;;;;;;;8.88;6.63;;;;;;;;;;6175467;28;20240;-75
2022/03/18 13:27:33;;;;;;;17.13;12.45;;;;;;;;;;6171780;28;20237;-75
2022/03/18 13:34:34;;;;;;;9.23;6.75;;;;;;;;;;6168047;28;20573;-83
2022/03/18 13:38:05;;;;;;;19.85;16.67;;;;;;;;;;6174291;28;20238;-75
2022/03/18 13:41:43;;;;;;;8.55;6.40;;;;;;;;;;6169043;28;20241;-80
2022/03/18 13:45:05;;;;;;;16.77;11.98;;;;;;;;;;6164883;28;20249;-75
2022/03/18 13:48:27;;;;;;;9.55;6.15;;;;;;;;;;6178121;28;20301;-74
2022/03/18 13:51:49;;;;;;;12.80;9.65;;;;;;;;;;6177145;28;20230;-77
2022/03/18 13:55:28;;;;;;;12.38;11.02;;;;;;;;;;6181395;28;20627;-81
2022/03/18 13:58:50;;;;;;;13.30;10.40;;;;;;;;;;6180596;28;20261;-77
2022/03/18 14:02:11;;;;;;;10.00;7.53;;;;;;;;;;6174696;28;20246;-75
2022/03/18 14:05:33;;;;;;;8.98;8.18;;;;;;;;;;6176546;28;20243;-75
2022/03/18 14:08:55;;;;;;;11.35;9.50;;;;;;;;;;6169170;28;20267;-82
2022/03/18 14:12:16;;;;;;;54.83;49.92;;;;;;;;;;6179944;28;20338;-83
2022/03/18 14:15:41;;;;;;;13.05;8.57;;;;;;;;;;6162612;28;20437;-76
2022/03/18 14:19:02;;;;;;;7.57;3.72;;;;;;;;;;6169286;28;20258;-77
2022/03/18 14:22:32;;;;;;;7.18;4.80;;;;;;;;;;6173992;28;20233;-79
2022/03/18 14:25:53;;;;;;;3.65;3.13;;;;;;;;;;6171105;28;20249;-78
2022/03/18 14:29:14;;;;;;;5.50;3.58;;;;;;;;;;6169304;28;20242;-77
2022/03/18 14:32:37;;;;;;;9.18;6.20;;;;;;;;;;6165139;28;20246;-82
2022/03/18 14:35:59;;;;;;;10.95;9.77;;;;;;;;;;6154742;28;21439;-74
2022/03/18 14:39:20;;;;;;;22.90;18.02;;;;;;;;;;6169823;28;20249;-73
2022/03/18 14:42:42;;;;;;;7.78;5.22;;;;;;;;;;6163036;28;20254;-75
2022/03/18 14:46:03;;;;;;;16.27;12.93;;;;;;;;;;6181961;28;20225;-74
2022/03/18 14:49:25;;;;;;;12.00;9.18;;;;;;;;;;6169925;28;20242;-74
2022/03/18 14:52:46;;;;;;;16.67;13.75;;;;;;;;;;6172401;28;20599;-74
2022/03/18 14:56:19;;;;;;;13.00;9.52;;;;;;;;;;6178115;28;20254;-75
2022/03/18 14:59:41;;;;;;;12.25;8.10;;;;;;;;;;6182076;28;20328;-74
2022/03/18 15:03:03;;;;;;;13.82;10.05;;;;;;;;;;6173878;28;20329;-73
2022/03/18 15:06:27;;;;;;;11.68;5.85;;;;;;;;;;6169196;28;20238;-73
2022/03/18 15:09:48;;;;;;;10.90;5.53;;;;;;;;;;6175615;28;20309;-74
2022/03/18 15:13:11;;;;;;;12.60;7.78;;;;;;;;;;6180351;28;20578;-73
2022/03/18 15:16:31;;;;;;;9.13;6.50;;;;;;;;;;6169289;28;20231;-74
2022/03/18 15:19:52;;;;;;;10.70;8.93;;;;;;;;;;6175237;28;20233;-74
2022/03/18 15:23:15;;;;;;;10.68;7.47;;;;;;;;;;6171325;28;20242;-75
2022/03/18 15:26:38;;;;;;;10.40;6.75;;;;;;;;;;6179735;28;20478;-73
2022/03/18 15:29:59;;;;;;;8.20;4.65;;;;;;;;;;6175024;28;20241;-75
2022/03/18 15:33:20;;;;;;;7.72;4.80;;;;;;;;;;6180580;28;20510;-74
2022/03/18 15:36:41;;;;;;;7.78;5.88;;;;;;;;;;6180429;28;20231;-74
2022/03/18 15:40:04;;;;;;;14.70;10.55;;;;;;;;;;6180532;28;20531;-76
2022/03/18 15:43:24;;;;;;;21.30;18.30;;;;;;;;;;6174769;28;20238;-74
2022/03/18 15:46:45;;;;;;;11.20;7.00;;;;;;;;;;6166342;28;20233;-74
2022/03/18 15:50:12;;;;;;;13.13;11.32;;;;;;;;;;6172202;28;20242;-72
2022/03/18 15:53:33;;;;;;;18.83;15.15;;;;;;;;;;6159033;28;20242;-74
2022/03/18 15:56:56;;;;;;;9.50;5.03;;;;;;;;;;6180943;28;20233;-75
2022/03/18 16:00:17;;;;;;;19.98;15.95;;;;;;;;;;6179254;28;20238;-75
2022/03/18 16:03:38;;;;;;;12.05;6.82;;;;;;;;;;6171823;28;20233;-74
2022/03/18 16:06:59;;;;;;;12.05;7.00;;;;;;;;;;6184744;28;20308;-74
2022/03/18 16:10:20;;;;;;;11.07;8.18;;;;;;;;;;6177030;28;20239;-75
2022/03/18 16:13:42;;;;;;;10.48;6.38;;;;;;;;;;6160261;28;20226;-75
2022/03/18 16:17:06;;;;;;;10.93;6.90;;;;;;;;;;6170450;28;20222;-75
2022/03/18 16:20:27;;;;;;;10.27;5.55;;;;;;;;;;6177392;28;20238;-74
2022/03/18 16:23:49;;;;;;;5.95;3.80;;;;;;;;;;6179304;28;20217;-74
2022/03/18 16:27:10;;;;;;;10.30;4.38;;;;;;;;;;6179877;28;20246;-74
2022/03/18 16:30:32;;;;;;;13.73;8.50;;;;;;;;;;6175096;28;20341;-74
2022/03/18 16:33:53;;;;;;;16.60;10.77;;;;;;;;;;6178158;28;20632;-74
2022/03/18 16:37:15;;;;;;;11.23;8.75;;;;;;;;;;6173947;28;20233;-74
2022/03/18 16:40:37;;;;;;;8.68;5.47;;;;;;;;;;6175785;28;20258;-76
2022/03/18 16:43:58;;;;;;;11.07;7.05;;;;;;;;;;6175908;28;20312;-75
2022/03/18 16:50:59;;;;;;;10.70;5.75;;;;;;;;;;6178784;28;20237;-74
2022/03/18 16:54:21;;;;;;;6.68;4.20;;;;;;;;;;6168653;28;20233;-75
2022/03/18 16:57:42;;;;;;;10.33;4.93;;;;;;;;;;6176388;28;20784;-75
2022/03/18 17:01:03;;;;;;;7.67;4.30;;;;;;;;;;6175793;28;20253;-74
2022/03/18 17:04:26;;;;;;;9.10;4.00;;;;;;;;;;6180193;28;20218;-75
2022/03/18 17:07:48;;;;;;;8.00;3.80;;;;;;;;;;6174745;28;20246;-76
2022/03/18 17:11:09;;;;;;;8.60;3.90;;;;;;;;;;6161257;28;20276;-74
2022/03/18 17:14:30;;;;;;;7.70;3.83;;;;;;;;;;6153499;28;20242;-75
2022/03/18 17:17:51;;;;;;;7.00;3.60;;;;;;;;;;6163205;28;20230;-76
2022/03/18 17:21:13;;;;;;;6.67;4.13;;;;;;;;;;6167613;28;20336;-75
2022/03/18 17:24:34;;;;;;;7.37;4.13;;;;;;;;;;6168305;28;20563;-74
2022/03/18 17:27:55;;;;;;;5.57;3.83;;;;;;;;;;6171016;28;20241;-75
2022/03/18 17:31:16;;;;;;;7.67;4.17;;;;;;;;;;6166571;28;20229;-76
2022/03/18 17:34:37;;;;;;;6.43;3.33;;;;;;;;;;6167381;28;20230;-75
2022/03/18 17:38:00;;;;;;;6.60;3.87;;;;;;;;;;6184255;28;20218;-76
2022/03/18 17:41:21;;;;;;;8.90;4.00;;;;;;;;;;6178984;28;20633;-75
2022/03/18 17:44:42;;;;;;;12.87;6.30;;;;;;;;;;6174909;28;20303;-75
2022/03/18 17:48:03;;;;;;;13.03;5.73;;;;;;;;;;6177712;28;20241;-76
2022/03/18 17:51:24;;;;;;;10.33;5.00;;;;;;;;;;6175135;28;20663;-74
2022/03/18 17:54:49;;;;;;;13.00;6.00;;;;;;;;;;6178730;28;20608;-75
2022/03/18 17:58:11;;;;;;;13.10;6.10;;;;;;;;;;6188425;28;20229;-76
2022/03/18 18:01:32;;;;;;;17.27;6.97;;;;;;;;;;6178227;28;20237;-74
2022/03/18 18:04:53;;;;;;;12.10;5.50;;;;;;;;;;6189140;28;20222;-75
2022/03/18 18:08:16;;;;;;;9.67;5.83;;;;;;;;;;6187170;28;20238;-75
2022/03/18 18:11:41;;;;;;;10.07;4.73;;;;;;;;;;6178573;28;20226;-75
2022/03/18 18:15:02;;;;;;;14.83;5.87;;;;;;;;;;6169441;28;20222;-75
2022/03/18 18:18:23;;;;;;;14.87;4.97;;;;;;;;;;6186263;28;20483;-76
2022/03/18 18:21:58;;;;;;;11.97;4.70;;;;;;;;;;6177750;28;20245;-75
2022/03/18 18:25:19;;;;;;;18.00;7.67;;;;;;;;;;6188620;28;20237;-75
2022/03/18 18:28:44;;;;;;;12.40;5.30;;;;;;;;;;6190726;28;20238;-76
2022/03/18 18:32:06;;;;;;;18.47;6.50;;;;;;;;;;6184198;28;20682;-76
2022/03/18 18:35:29;;;;;;;17.37;6.40;;;;;;;;;;6170168;28;20226;-75
2022/03/18 18:38:52;;;;;;;12.47;5.20;;;;;;;;;;6150609;28;20229;-78
2022/03/18 18:42:13;;;;;;;10.70;4.77;;;;;;;;;;6184884;28;20233;-80
2022/03/18 18:45:37;;;;;;;13.80;5.97;;;;;;;;;;6182042;28;20344;-78
2022/03/18 18:48:58;;;;;;;12.07;6.80;;;;;;;;;;6179764;28;20336;-78
2022/03/18 18:52:18;;;;;;;14.83;7.07;;;;;;;;;;6171344;28;20284;-79
2022/03/18 18:55:39;;;;;;;13.13;5.83;;;;;;;;;;6189228;28;20953;-80
2022/03/18 18:59:01;;;;;;;15.60;6.53;;;;;;;;;;6184663;28;20501;-78
2022/03/18 19:02:24;;;;;;;13.37;6.13;;;;;;;;;;6187276;28;20603;-83
2022/03/18 19:05:46;;;;;;;14.53;6.57;;;;;;;;;;6189194;28;20238;-80
2022/03/18 19:09:08;;;;;;;16.33;6.07;;;;;;;;;;6188552;28;20667;-77
2022/03/18 19:12:29;;;;;;;14.13;6.47;;;;;;;;;;6178662;28;20229;-76
2022/03/18 19:15:50;;;;;;;18.77;7.47;;;;;;;;;;6182569;28;20491;-83
2022/03/18 19:19:12;;;;;;;17.17;6.93;;;;;;;;;;6179445;28;20547;-78
2022/03/18 19:22:33;;;;;;;12.87;6.10;;;;;;;;;;6190693;28;20616;-78
2022/03/18 19:25:55;;;;;;;14.97;6.03;;;;;;;;;;6176757;28;20325;-79
2022/03/18 19:29:16;;;;;;;13.50;5.67;;;;;;;;;;6188992;28;21122;-79
2022/03/18 19:32:40;;;;;;;16.33;7.37;;;;;;;;;;6172033;28;20226;-83
2022/03/18 19:36:02;;;;;;;26.80;16.93;;;;;;;;;;6188577;28;20229;-80
2022/03/18 19:39:24;;;;;;;25.90;17.33;;;;;;;;;;6166887;28;20245;-78
2022/03/18 19:42:45;;;;;;;24.83;16.03;;;;;;;;;;6188074;28;20618;-76
2022/03/18 19:46:06;;;;;;;25.40;15.77;;;;;;;;;;6184668;28;20222;-78
2022/03/18 19:49:26;;;;;;;26.80;19.40;;;;;;;;;;6183886;28;20230;-79
2022/03/18 19:52:48;;;;;;;26.70;17.10;;;;;;;;;;6179596;28;20227;-75
2022/03/18 20:03:33;;;;;;;32.40;21.47;;;;;;;;;;6185685;28;20415;-78
2022/03/18 20:06:53;;;;;;;31.47;24.07;;;;;;;;;;6169951;28;20222;-77
2022/03/18 20:10:15;;;;;;;16.17;11.23;;;;;;;;;;6174315;28;20242;-73
2022/03/18 20:13:39;;;;;;;12.83;8.17;;;;;;;;;;6178172;28;20242;-75
2022/03/18 20:17:00;;;;;;;19.70;12.10;;;;;;;;;;6168731;28;20476;-74
2022/03/18 20:20:23;;;;;;;17.23;9.37;;;;;;;;;;6156696;28;20542;-77
2022/03/18 20:23:43;;;;;;;15.77;8.60;;;;;;;;;;6171704;28;20257;-75
2022/03/18 20:27:06;;;;;;;22.57;14.80;;;;;;;;;;6180238;28;20272;-75
2022/03/18 20:30:27;;;;;;;42.10;28.83;;;;;;;;;;6183184;28;20238;-74
2022/03/18 20:33:48;;;;;;;34.17;23.57;;;;;;;;;;6169018;28;20241;-74
2022/03/18 20:37:09;;;;;;;28.33;17.53;;;;;;;;;;6181277;28;20495;-82
2022/03/18 20:40:30;;;;;;;28.47;17.07;;;;;;;;;;6184828;28;20572;-74
2022/03/18 20:43:53;;;;;;;39.03;31.07;;;;;;;;;;6188838;28;20233;-80